sensor_id;sensor_type;location;lat;lon;timestamp;pressure;altitude;pressure_sealevel;temperature;humidity
76297;BME280;65104;52.994;6.552;2023-06-22T00:01:28;101946.72;;;17.60;100.00
76297;BME280;65104;52.994;6.552;2023-06-22T00:03:53;101945.00;;;17.60;100.00
76297;BME280;65104;52.994;6.552;2023-06-22T00:06:18;101937.94;;;17.47;100.00
76297;BME280;65104;52.994;6.552;2023-06-22T00:08:44;101937.06;;;17.45;100.00
76297;BME280;65104;52.994;6.552;2023-06-22T00:11:09;101943.09;;;17.41;100.00
76297;BME280;65104;52.994;6.552;2023-06-22T00:13:35;101940.50;;;17.40;100.00
76297;BME280;65104;52.994;6.552;2023-06-22T00:16:01;101944.81;;;17.39;100.00
76297;BME280;65104;52.994;6.552;2023-06-22T00:18:26;101943.94;;;17.36;100.00
76297;BME280;65104;52.994;6.552;2023-06-22T00:20:54;101943.88;;;17.30;100.00
76297;BME280;65104;52.994;6.552;2023-06-22T00:23:23;101939.50;;;17.27;100.00
76297;BME280;65104;52.994;6.552;2023-06-22T00:25:49;101943.00;;;17.26;100.00
76297;BME280;65104;52.994;6.552;2023-06-22T00:28:14;101949.00;;;17.23;100.00
76297;BME280;65104;52.994;6.552;2023-06-22T00:30:39;101949.00;;;17.22;100.00
76297;BME280;65104;52.994;6.552;2023-06-22T00:33:08;101953.19;;;17.11;100.00
76297;BME280;65104;52.994;6.552;2023-06-22T00:35:34;101959.25;;;17.07;100.00
76297;BME280;65104;52.994;6.552;2023-06-22T00:38:00;101957.50;;;17.06;100.00
76297;BME280;65104;52.994;6.552;2023-06-22T00:40:32;101960.09;;;17.06;100.00
76297;BME280;65104;52.994;6.552;2023-06-22T00:42:58;101951.31;;;16.95;100.00
76297;BME280;65104;52.994;6.552;2023-06-22T00:45:24;101958.22;;;16.93;100.00
76297;BME280;65104;52.994;6.552;2023-06-22T00:47:55;101958.19;;;16.90;100.00
76297;BME280;65104;52.994;6.552;2023-06-22T00:50:22;101961.59;;;16.85;100.00
76297;BME280;65104;52.994;6.552;2023-06-22T00:52:53;101958.97;;;16.81;100.00
76297;BME280;65104;52.994;6.552;2023-06-22T00:55:22;101957.25;;;16.81;100.00
76297;BME280;65104;52.994;6.552;2023-06-22T00:57:48;101949.47;;;16.81;100.00
76297;BME280;65104;52.994;6.552;2023-06-22T01:00:17;101943.31;;;16.75;100.00
76297;BME280;65104;52.994;6.552;2023-06-22T01:02:45;101948.47;;;16.70;100.00
76297;BME280;65104;52.994;6.552;2023-06-22T01:05:14;101954.50;;;16.69;100.00
76297;BME280;65104;52.994;6.552;2023-06-22T01:13:04;101949.28;;;16.66;100.00
76297;BME280;65104;52.994;6.552;2023-06-22T01:15:40;101944.09;;;16.66;100.00
76297;BME280;65104;52.994;6.552;2023-06-22T01:18:11;101943.25;;;16.67;100.00
76297;BME280;65104;52.994;6.552;2023-06-22T01:20:39;101949.31;;;16.69;100.00
76297;BME280;65104;52.994;6.552;2023-06-22T01:23:08;101938.91;;;16.66;100.00
76297;BME280;65104;52.994;6.552;2023-06-22T01:25:48;101938.88;;;16.63;100.00
76297;BME280;65104;52.994;6.552;2023-06-22T01:28:47;101932.88;;;16.67;100.00
76297;BME280;65104;52.994;6.552;2023-06-22T01:31:18;101928.50;;;16.63;100.00
76297;BME280;65104;52.994;6.552;2023-06-22T01:33:47;101925.03;;;16.61;100.00
76297;BME280;65104;52.994;6.552;2023-06-22T01:36:17;101916.31;;;16.59;100.00
76297;BME280;65104;52.994;6.552;2023-06-22T01:38:43;101922.38;;;16.60;100.00
76297;BME280;65104;52.994;6.552;2023-06-22T01:41:10;101917.16;;;16.57;100.00
76297;BME280;65104;52.994;6.552;2023-06-22T01:43:36;101911.97;;;16.57;100.00
76297;BME280;65104;52.994;6.552;2023-06-22T01:46:02;101921.59;;;16.62;100.00
76297;BME280;65104;52.994;6.552;2023-06-22T01:48:28;101914.69;;;16.63;100.00
76297;BME280;65104;52.994;6.552;2023-06-22T01:50:54;101921.53;;;16.61;100.00
76297;BME280;65104;52.994;6.552;2023-06-22T01:53:21;101919.84;;;16.61;100.00
76297;BME280;65104;52.994;6.552;2023-06-22T01:55:47;101919.00;;;16.64;100.00
76297;BME280;65104;52.994;6.552;2023-06-22T01:58:13;101917.19;;;16.60;100.00
76297;BME280;65104;52.994;6.552;2023-06-22T02:00:48;101911.09;;;16.58;100.00
76297;BME280;65104;52.994;6.552;2023-06-22T02:03:21;101910.25;;;16.59;100.00
76297;BME280;65104;52.994;6.552;2023-06-22T02:05:56;101912.88;;;16.60;100.00
76297;BME280;65104;52.994;6.552;2023-06-22T02:08:28;101914.56;;;16.58;100.00
76297;BME280;65104;52.994;6.552;2023-06-22T02:10:55;101911.97;;;16.57;100.00
76297;BME280;65104;52.994;6.552;2023-06-22T02:13:24;101907.63;;;16.56;100.00
76297;BME280;65104;52.994;6.552;2023-06-22T02:15:50;101909.34;;;16.52;100.00
76297;BME280;65104;52.994;6.552;2023-06-22T02:18:16;101913.63;;;16.50;100.00
76297;BME280;65104;52.994;6.552;2023-06-22T02:20:42;101923.09;;;16.45;100.00
76297;BME280;65104;52.994;6.552;2023-06-22T02:23:07;101929.13;;;16.44;100.00
76297;BME280;65104;52.994;6.552;2023-06-22T02:25:35;101929.00;;;16.35;100.00
76297;BME280;65104;52.994;6.552;2023-06-22T02:28:01;101925.50;;;16.33;100.00
76297;BME280;65104;52.994;6.552;2023-06-22T02:30:26;101934.13;;;16.30;100.00
76297;BME280;65104;52.994;6.552;2023-06-22T02:32:52;101919.38;;;16.25;100.00
76297;BME280;65104;52.994;6.552;2023-06-22T02:35:28;101918.53;;;16.26;100.00
76297;BME280;65104;52.994;6.552;2023-06-22T02:38:00;101917.66;;;16.27;100.00
76297;BME280;65104;52.994;6.552;2023-06-22T02:40:27;101914.13;;;16.22;100.00
76297;BME280;65104;52.994;6.552;2023-06-22T02:42:53;101920.97;;;16.15;100.00
76297;BME280;65104;52.994;6.552;2023-06-22T02:45:18;101926.94;;;16.11;100.00
76297;BME280;65104;52.994;6.552;2023-06-22T02:47:44;101926.06;;;16.10;100.00
76297;BME280;65104;52.994;6.552;2023-06-22T02:50:09;101925.22;;;16.08;100.00
76297;BME280;65104;52.994;6.552;2023-06-22T02:52:35;101932.84;;;15.99;100.00
76297;BME280;65104;52.994;6.552;2023-06-22T02:55:00;101928.44;;;15.92;100.00
76297;BME280;65104;52.994;6.552;2023-06-22T02:57:26;101931.03;;;15.92;100.00
76297;BME280;65104;52.994;6.552;2023-06-22T02:59:51;101926.78;;;15.97;100.00
76297;BME280;65104;52.994;6.552;2023-06-22T03:02:17;101919.00;;;15.97;100.00
76297;BME280;65104;52.994;6.552;2023-06-22T03:04:43;101927.69;;;15.99;100.00
76297;BME280;65104;52.994;6.552;2023-06-22T03:07:09;101923.38;;;16.00;100.00
76297;BME280;65104;52.994;6.552;2023-06-22T03:09:34;101920.78;;;16.00;100.00
76297;BME280;65104;52.994;6.552;2023-06-22T03:11:59;101930.25;;;15.98;100.00
76297;BME280;65104;52.994;6.552;2023-06-22T03:14:25;101928.53;;;16.00;100.00
76297;BME280;65104;52.994;6.552;2023-06-22T03:16:51;101924.97;;;15.93;100.00
76297;BME280;65104;52.994;6.552;2023-06-22T03:19:16;101925.84;;;15.92;100.00
76297;BME280;65104;52.994;6.552;2023-06-22T03:21:42;101924.09;;;15.93;100.00
76297;BME280;65104;52.994;6.552;2023-06-22T03:24:07;101924.13;;;15.91;100.00
76297;BME280;65104;52.994;6.552;2023-06-22T03:26:34;101924.13;;;15.91;100.00
76297;BME280;65104;52.994;6.552;2023-06-22T03:28:59;101931.00;;;15.91;100.00
76297;BME280;65104;52.994;6.552;2023-06-22T03:31:25;101928.41;;;15.91;100.00
76297;BME280;65104;52.994;6.552;2023-06-22T03:33:51;101924.97;;;15.92;100.00
76297;BME280;65104;52.994;6.552;2023-06-22T03:36:17;101925.88;;;15.95;100.00
76297;BME280;65104;52.994;6.552;2023-06-22T03:38:46;101916.41;;;15.97;100.00
76297;BME280;65104;52.994;6.552;2023-06-22T03:41:12;101918.09;;;15.92;100.00
76297;BME280;65104;52.994;6.552;2023-06-22T03:43:37;101917.25;;;15.96;100.00
76297;BME280;65104;52.994;6.552;2023-06-22T03:46:03;101910.38;;;15.98;100.00
76297;BME280;65104;52.994;6.552;2023-06-22T03:48:28;101917.31;;;15.99;100.00
76297;BME280;65104;52.994;6.552;2023-06-22T03:50:53;101912.16;;;16.02;100.00
76297;BME280;65104;52.994;6.552;2023-06-22T03:53:19;101912.19;;;16.04;100.00
76297;BME280;65104;52.994;6.552;2023-06-22T03:55:51;101907.91;;;16.07;100.00
76297;BME280;65104;52.994;6.552;2023-06-22T03:58:18;101911.38;;;16.08;100.00
76297;BME280;65104;52.994;6.552;2023-06-22T04:00:45;101917.44;;;16.08;100.00
76297;BME280;65104;52.994;6.552;2023-06-22T04:03:12;101918.28;;;16.07;100.00
76297;BME280;65104;52.994;6.552;2023-06-22T04:05:38;101910.56;;;16.13;100.00
76297;BME280;65104;52.994;6.552;2023-06-22T04:08:04;101914.09;;;16.20;100.00
76297;BME280;65104;52.994;6.552;2023-06-22T04:10:30;101913.25;;;16.20;100.00
76297;BME280;65104;52.994;6.552;2023-06-22T04:12:55;101921.06;;;16.23;100.00
76297;BME280;65104;52.994;6.552;2023-06-22T04:15:21;101921.13;;;16.26;100.00
76297;BME280;65104;52.994;6.552;2023-06-22T04:17:47;101924.63;;;16.31;100.00
76297;BME280;65104;52.994;6.552;2023-06-22T04:20:12;101926.44;;;16.36;100.00
76297;BME280;65104;52.994;6.552;2023-06-22T04:22:38;101930.75;;;16.37;100.00
76297;BME280;65104;52.994;6.552;2023-06-22T04:25:03;101924.66;;;16.34;100.00
76297;BME280;65104;52.994;6.552;2023-06-22T04:27:29;101926.47;;;16.41;100.00
76297;BME280;65104;52.994;6.552;2023-06-22T04:29:54;101913.59;;;16.45;100.00
76297;BME280;65104;52.994;6.552;2023-06-22T04:32:19;101907.53;;;16.48;100.00
76297;BME280;65104;52.994;6.552;2023-06-22T04:34:45;101917.03;;;16.44;100.00
76297;BME280;65104;52.994;6.552;2023-06-22T04:37:10;101916.16;;;16.44;100.00
76297;BME280;65104;52.994;6.552;2023-06-22T04:39:41;101918.78;;;16.45;100.00
76297;BME280;65104;52.994;6.552;2023-06-22T04:42:07;101909.28;;;16.49;100.00
76297;BME280;65104;52.994;6.552;2023-06-22T04:44:32;101911.06;;;16.53;100.00
76297;BME280;65104;52.994;6.552;2023-06-22T04:46:58;101912.94;;;16.62;100.00
76297;BME280;65104;52.994;6.552;2023-06-22T04:49:31;101913.81;;;16.62;100.00
76297;BME280;65104;52.994;6.552;2023-06-22T04:52:08;101917.28;;;16.66;100.00
76297;BME280;65104;52.994;6.552;2023-06-22T04:54:36;101913.94;;;16.73;100.00
76297;BME280;65104;52.994;6.552;2023-06-22T04:57:02;101914.78;;;16.75;100.00
76297;BME280;65104;52.994;6.552;2023-06-22T04:59:30;101919.19;;;16.80;100.00
76297;BME280;65104;52.994;6.552;2023-06-22T05:04:22;101899.31;;;16.84;100.00
76297;BME280;65104;52.994;6.552;2023-06-22T05:06:48;101904.56;;;16.92;100.00
76297;BME280;65104;52.994;6.552;2023-06-22T05:09:14;101890.81;;;16.99;100.00
76297;BME280;65104;52.994;6.552;2023-06-22T05:11:39;101897.78;;;17.04;100.00
76297;BME280;65104;52.994;6.552;2023-06-22T05:14:05;101904.75;;;17.07;100.00
76297;BME280;65104;52.994;6.552;2023-06-22T05:16:30;101904.75;;;17.11;100.00
76297;BME280;65104;52.994;6.552;2023-06-22T05:18:56;101899.63;;;17.14;100.00
76297;BME280;65104;52.994;6.552;2023-06-22T05:21:23;101908.31;;;17.22;100.00
76297;BME280;65104;52.994;6.552;2023-06-22T05:23:50;101910.09;;;17.28;100.00
76297;BME280;65104;52.994;6.552;2023-06-22T05:26:15;101908.44;;;17.36;100.00
76297;BME280;65104;52.994;6.552;2023-06-22T05:28:41;101905.94;;;17.48;100.00
76297;BME280;65104;52.994;6.552;2023-06-22T05:31:06;101907.72;;;17.57;100.00
76297;BME280;65104;52.994;6.552;2023-06-22T05:33:32;101907.81;;;17.65;100.00
76297;BME280;65104;52.994;6.552;2023-06-22T05:35:57;101911.31;;;17.70;100.00
76297;BME280;65104;52.994;6.552;2023-06-22T05:38:22;101902.72;;;17.78;100.00
76297;BME280;65104;52.994;6.552;2023-06-22T05:40:48;101906.25;;;17.88;100.00
76297;BME280;65104;52.994;6.552;2023-06-22T05:43:15;101913.19;;;17.93;100.00
76297;BME280;65104;52.994;6.552;2023-06-22T05:45:40;101908.06;;;18.06;100.00
76297;BME280;65104;52.994;6.552;2023-06-22T05:48:06;101907.25;;;18.14;100.00
76297;BME280;65104;52.994;6.552;2023-06-22T05:50:31;101896.84;;;18.20;100.00
76297;BME280;65104;52.994;6.552;2023-06-22T05:52:56;101912.47;;;18.28;100.00
76297;BME280;65104;52.994;6.552;2023-06-22T05:55:22;101903.84;;;18.38;100.00
76297;BME280;65104;52.994;6.552;2023-06-22T05:57:47;101904.78;;;18.51;100.00
76297;BME280;65104;52.994;6.552;2023-06-22T06:00:13;101898.75;;;18.59;100.00
76297;BME280;65104;52.994;6.552;2023-06-22T06:02:39;101903.13;;;18.66;100.00
76297;BME280;65104;52.994;6.552;2023-06-22T06:05:10;101902.28;;;18.78;100.00
76297;BME280;65104;52.994;6.552;2023-06-22T06:07:36;101897.94;;;18.85;100.00
76297;BME280;65104;52.994;6.552;2023-06-22T06:10:03;101894.47;;;18.92;100.00
76297;BME280;65104;52.994;6.552;2023-06-22T06:12:29;101891.88;;;18.99;100.00
76297;BME280;65104;52.994;6.552;2023-06-22T06:14:55;101898.84;;;19.09;100.00
76297;BME280;65104;52.994;6.552;2023-06-22T06:17:21;101902.31;;;19.13;100.00
76297;BME280;65104;52.994;6.552;2023-06-22T06:19:47;101899.72;;;19.22;100.00
76297;BME280;65104;52.994;6.552;2023-06-22T06:22:12;101899.72;;;19.31;100.00
76297;BME280;65104;52.994;6.552;2023-06-22T06:24:38;101899.69;;;19.43;100.00
76297;BME280;65104;52.994;6.552;2023-06-22T06:27:03;101898.84;;;19.52;100.00
76297;BME280;65104;52.994;6.552;2023-06-22T06:29:31;101906.66;;;19.61;100.00
76297;BME280;65104;52.994;6.552;2023-06-22T06:31:56;101901.44;;;19.76;100.00
76297;BME280;65104;52.994;6.552;2023-06-22T06:34:22;101909.19;;;19.92;100.00
76297;BME280;65104;52.994;6.552;2023-06-22T06:36:47;101907.44;;;20.03;100.00
76297;BME280;65104;52.994;6.552;2023-06-22T06:39:12;101917.84;;;19.98;100.00
76297;BME280;65104;52.994;6.552;2023-06-22T06:41:38;101916.06;;;20.20;100.00
76297;BME280;65104;52.994;6.552;2023-06-22T06:44:04;101916.03;;;20.37;100.00
76297;BME280;65104;52.994;6.552;2023-06-22T06:46:29;101913.31;;;20.50;100.00
76297;BME280;65104;52.994;6.552;2023-06-22T06:48:55;101903.75;;;20.57;100.00
76297;BME280;65104;52.994;6.552;2023-06-22T06:51:20;101900.22;;;20.63;100.00
76297;BME280;65104;52.994;6.552;2023-06-22T06:53:46;101898.47;;;20.63;100.00
76297;BME280;65104;52.994;6.552;2023-06-22T06:56:11;101908.00;;;20.72;100.00
76297;BME280;65104;52.994;6.552;2023-06-22T06:58:40;101903.66;;;20.71;100.00
76297;BME280;65104;52.994;6.552;2023-06-22T07:01:05;101905.34;;;20.79;100.00
76297;BME280;65104;52.994;6.552;2023-06-22T07:03:31;101906.19;;;20.81;100.00
76297;BME280;65104;52.994;6.552;2023-06-22T07:05:58;101906.19;;;20.81;100.00
76297;BME280;65104;52.994;6.552;2023-06-22T07:08:24;101904.47;;;20.80;100.00
76297;BME280;65104;52.994;6.552;2023-06-22T07:10:49;101899.19;;;20.88;100.00
76297;BME280;65104;52.994;6.552;2023-06-22T07:13:15;101896.53;;;20.94;100.00
76297;BME280;65104;52.994;6.552;2023-06-22T07:15:40;101910.41;;;21.01;100.00
76297;BME280;65104;52.994;6.552;2023-06-22T07:18:05;101899.03;;;21.08;100.00
76297;BME280;65104;52.994;6.552;2023-06-22T07:20:31;101900.72;;;21.13;100.00
76297;BME280;65104;52.994;6.552;2023-06-22T07:22:59;101889.41;;;21.19;97.92
76297;BME280;65104;52.994;6.552;2023-06-22T07:25:24;101900.69;;;21.21;99.74
76297;BME280;65104;52.994;6.552;2023-06-22T07:28:03;101896.44;;;21.03;94.27
76297;BME280;65104;52.994;6.552;2023-06-22T07:30:31;101885.94;;;21.14;98.51
76297;BME280;65104;52.994;6.552;2023-06-22T07:32:57;101889.41;;;21.16;96.46
76297;BME280;65104;52.994;6.552;2023-06-22T07:35:24;101891.13;;;21.21;95.66
76297;BME280;65104;52.994;6.552;2023-06-22T07:37:49;101880.50;;;21.40;94.60
76297;BME280;65104;52.994;6.552;2023-06-22T07:40:14;101871.75;;;21.44;91.26
76297;BME280;65104;52.994;6.552;2023-06-22T07:42:40;101877.84;;;21.47;93.07
76297;BME280;65104;52.994;6.552;2023-06-22T07:45:06;101879.41;;;21.65;92.97
76297;BME280;65104;52.994;6.552;2023-06-22T07:47:33;101876.53;;;21.86;96.56
76297;BME280;65104;52.994;6.552;2023-06-22T07:50:01;101880.78;;;21.99;90.58
76297;BME280;65104;52.994;6.552;2023-06-22T07:52:28;101873.81;;;22.00;85.21
76297;BME280;65104;52.994;6.552;2023-06-22T07:54:53;101864.88;;;22.15;79.83
76297;BME280;65104;52.994;6.552;2023-06-22T07:57:19;101859.50;;;22.27;78.65
76297;BME280;65104;52.994;6.552;2023-06-22T07:59:45;101854.94;;;22.41;78.17
76297;BME280;65104;52.994;6.552;2023-06-22T08:02:10;101865.22;;;22.55;80.98
76297;BME280;65104;52.994;6.552;2023-06-22T08:04:36;101860.00;;;22.53;82.91
76297;BME280;65104;52.994;6.552;2023-06-22T08:07:01;101858.34;;;22.46;79.07
76297;BME280;65104;52.994;6.552;2023-06-22T08:09:28;101859.03;;;22.60;82.97
76297;BME280;65104;52.994;6.552;2023-06-22T08:11:54;101855.56;;;22.58;82.13
76297;BME280;65104;52.994;6.552;2023-06-22T08:14:22;101851.91;;;22.68;81.54
76297;BME280;65104;52.994;6.552;2023-06-22T08:16:48;101853.63;;;22.71;80.64
76297;BME280;65104;52.994;6.552;2023-06-22T08:19:15;101852.97;;;22.57;78.69
76297;BME280;65104;52.994;6.552;2023-06-22T08:21:41;101843.16;;;22.71;79.61
76297;BME280;65104;52.994;6.552;2023-06-22T08:24:06;101843.94;;;22.77;79.42
76297;BME280;65104;52.994;6.552;2023-06-22T08:26:33;101841.91;;;22.95;79.71
76297;BME280;65104;52.994;6.552;2023-06-22T08:29:01;101847.84;;;23.06;78.24
76297;BME280;65104;52.994;6.552;2023-06-22T08:31:27;101841.50;;;23.19;78.87
76297;BME280;65104;52.994;6.552;2023-06-22T08:33:52;101847.38;;;23.33;76.28
76297;BME280;65104;52.994;6.552;2023-06-22T08:36:18;101847.84;;;23.55;78.80
76297;BME280;65104;52.994;6.552;2023-06-22T08:38:43;101852.19;;;23.58;74.75
76297;BME280;65104;52.994;6.552;2023-06-22T08:41:10;101837.50;;;23.47;74.68
76297;BME280;65104;52.994;6.552;2023-06-22T08:43:35;101842.09;;;23.81;77.91
76297;BME280;65104;52.994;6.552;2023-06-22T08:46:01;101840.00;;;23.98;75.73
76297;BME280;65104;52.994;6.552;2023-06-22T08:48:28;101834.28;;;24.22;72.34
76297;BME280;65104;52.994;6.552;2023-06-22T08:50:53;101829.53;;;24.38;72.52
76297;BME280;65104;52.994;6.552;2023-06-22T08:53:19;101833.22;;;24.68;68.50
76297;BME280;65104;52.994;6.552;2023-06-22T08:55:44;101827.59;;;24.83;68.63
76297;BME280;65104;52.994;6.552;2023-06-22T08:58:10;101825.69;;;24.88;68.54
76297;BME280;65104;52.994;6.552;2023-06-22T09:00:35;101821.00;;;25.02;66.89
76297;BME280;65104;52.994;6.552;2023-06-22T09:03:01;101821.22;;;25.27;66.19
76297;BME280;65104;52.994;6.552;2023-06-22T09:05:26;101814.56;;;25.47;62.35
76297;BME280;65104;52.994;6.552;2023-06-22T09:07:52;101816.91;;;24.89;64.37
76297;BME280;65104;52.994;6.552;2023-06-22T09:10:20;101823.13;;;25.53;64.55
76297;BME280;65104;52.994;6.552;2023-06-22T09:12:45;101815.44;;;25.78;62.33
76297;BME280;65104;52.994;6.552;2023-06-22T09:15:11;101810.50;;;25.97;62.85
76297;BME280;65104;52.994;6.552;2023-06-22T09:17:36;101811.31;;;25.99;63.30
76297;BME280;65104;52.994;6.552;2023-06-22T09:20:02;101802.56;;;26.28;61.51
76297;BME280;65104;52.994;6.552;2023-06-22T09:22:30;101802.88;;;26.17;59.79
76297;BME280;65104;52.994;6.552;2023-06-22T09:24:56;101809.53;;;26.30;60.23
76297;BME280;65104;52.994;6.552;2023-06-22T09:27:22;101798.72;;;26.66;59.91
76297;BME280;65104;52.994;6.552;2023-06-22T09:29:47;101793.53;;;26.36;59.00
76297;BME280;65104;52.994;6.552;2023-06-22T09:32:13;101794.25;;;26.40;61.54
76297;BME280;65104;52.994;6.552;2023-06-22T09:34:38;101788.31;;;26.61;60.48
76297;BME280;65104;52.994;6.552;2023-06-22T09:37:04;101788.78;;;26.47;56.83
76297;BME280;65104;52.994;6.552;2023-06-22T09:39:29;101798.78;;;26.07;58.82
76297;BME280;65104;52.994;6.552;2023-06-22T09:41:55;101786.75;;;26.56;56.39
76297;BME280;65104;52.994;6.552;2023-06-22T09:44:20;101795.09;;;26.68;56.44
76297;BME280;65104;52.994;6.552;2023-06-22T09:46:46;101783.34;;;26.78;54.93
76297;BME280;65104;52.994;6.552;2023-06-22T09:49:11;101780.28;;;26.10;57.71
76297;BME280;65104;52.994;6.552;2023-06-22T09:51:36;101783.63;;;26.15;58.60
76297;BME280;65104;52.994;6.552;2023-06-22T09:54:02;101777.38;;;26.73;60.11
76297;BME280;65104;52.994;6.552;2023-06-22T09:56:27;101777.94;;;26.83;58.87
76297;BME280;65104;52.994;6.552;2023-06-22T09:58:54;101773.59;;;27.32;55.59
76297;BME280;65104;52.994;6.552;2023-06-22T10:01:19;101773.72;;;27.52;54.44
76297;BME280;65104;52.994;6.552;2023-06-22T10:03:46;101778.34;;;27.70;55.58
76297;BME280;65104;52.994;6.552;2023-06-22T10:06:11;101777.75;;;27.85;52.51
76297;BME280;65104;52.994;6.552;2023-06-22T10:08:36;101763.78;;;28.05;53.68
76297;BME280;65104;52.994;6.552;2023-06-22T10:11:03;101764.09;;;27.97;52.39
76297;BME280;65104;52.994;6.552;2023-06-22T10:13:29;101771.00;;;27.78;51.55
76297;BME280;65104;52.994;6.552;2023-06-22T10:15:54;101772.44;;;27.39;55.11
76297;BME280;65104;52.994;6.552;2023-06-22T10:18:20;101769.84;;;27.14;53.99
76297;BME280;65104;52.994;6.552;2023-06-22T10:20:48;101773.59;;;27.07;55.21
76297;BME280;65104;52.994;6.552;2023-06-22T10:23:15;101765.47;;;27.13;56.28
76297;BME280;65104;52.994;6.552;2023-06-22T10:25:40;101760.38;;;27.56;54.48
76297;BME280;65104;52.994;6.552;2023-06-22T10:28:06;101760.53;;;27.98;53.93
76297;BME280;65104;52.994;6.552;2023-06-22T10:30:32;101760.97;;;28.10;55.23
76297;BME280;65104;52.994;6.552;2023-06-22T10:32:58;101759.09;;;28.35;49.27
76297;BME280;65104;52.994;6.552;2023-06-22T10:35:23;101749.88;;;28.23;49.62
76297;BME280;65104;52.994;6.552;2023-06-22T10:37:49;101755.41;;;27.72;51.17
76297;BME280;65104;52.994;6.552;2023-06-22T10:40:15;101761.25;;;27.80;50.34
76297;BME280;65104;52.994;6.552;2023-06-22T10:42:41;101756.50;;;27.67;53.16
76297;BME280;65104;52.994;6.552;2023-06-22T10:45:07;101751.56;;;28.02;48.92
76297;BME280;65104;52.994;6.552;2023-06-22T10:47:33;101749.88;;;28.45;48.97
76297;BME280;65104;52.994;6.552;2023-06-22T10:49:59;101739.75;;;28.34;48.06
76297;BME280;65104;52.994;6.552;2023-06-22T10:52:25;101753.66;;;28.18;51.57
76297;BME280;65104;52.994;6.552;2023-06-22T10:54:50;101745.38;;;28.47;47.43
76297;BME280;65104;52.994;6.552;2023-06-22T10:57:16;101740.34;;;28.63;45.66
76297;BME280;65104;52.994;6.552;2023-06-22T10:59:41;101734.03;;;28.45;47.97
76297;BME280;65104;52.994;6.552;2023-06-22T11:02:06;101735.63;;;28.06;49.26
76297;BME280;65104;52.994;6.552;2023-06-22T11:04:32;101733.78;;;27.62;50.48
76297;BME280;65104;52.994;6.552;2023-06-22T11:06:57;101729.47;;;27.60;47.67
76297;BME280;65104;52.994;6.552;2023-06-22T11:09:23;101727.09;;;27.52;49.88
76297;BME280;65104;52.994;6.552;2023-06-22T11:11:50;101732.06;;;27.61;51.44
76297;BME280;65104;52.994;6.552;2023-06-22T11:14:16;101730.16;;;27.65;50.61
76297;BME280;65104;52.994;6.552;2023-06-22T11:16:41;101727.84;;;27.56;48.37
76297;BME280;65104;52.994;6.552;2023-06-22T11:19:06;101734.25;;;27.25;52.38
76297;BME280;65104;52.994;6.552;2023-06-22T11:21:32;101734.09;;;27.05;50.30
76297;BME280;65104;52.994;6.552;2023-06-22T11:23:58;101731.41;;;26.82;51.58
76297;BME280;65104;52.994;6.552;2023-06-22T11:26:24;101744.91;;;26.46;53.71
76297;BME280;65104;52.994;6.552;2023-06-22T11:28:50;101745.59;;;26.24;52.87
76297;BME280;65104;52.994;6.552;2023-06-22T11:31:15;101755.28;;;26.23;53.25
76297;BME280;65104;52.994;6.552;2023-06-22T11:33:41;101741.44;;;26.44;57.74
76297;BME280;65104;52.994;6.552;2023-06-22T11:36:06;101736.31;;;26.40;54.35
76297;BME280;65104;52.994;6.552;2023-06-22T11:38:32;101737.75;;;26.50;54.49
76297;BME280;65104;52.994;6.552;2023-06-22T11:40:58;101743.22;;;26.44;54.36
76297;BME280;65104;52.994;6.552;2023-06-22T11:43:24;101732.00;;;26.39;52.12
76297;BME280;65104;52.994;6.552;2023-06-22T11:45:50;101738.00;;;26.42;55.59
76297;BME280;65104;52.994;6.552;2023-06-22T11:48:15;101735.28;;;26.45;52.55
76297;BME280;65104;52.994;6.552;2023-06-22T11:50:41;101732.72;;;26.42;53.41
76297;BME280;65104;52.994;6.552;2023-06-22T11:53:06;101728.84;;;26.54;54.47
76297;BME280;65104;52.994;6.552;2023-06-22T11:55:32;101730.56;;;26.55;52.12
76297;BME280;65104;52.994;6.552;2023-06-22T11:57:57;101733.56;;;26.44;52.43
76297;BME280;65104;52.994;6.552;2023-06-22T12:00:29;101726.28;;;26.51;52.33
76297;BME280;65104;52.994;6.552;2023-06-22T12:02:55;101729.59;;;26.58;53.17
76297;BME280;65104;52.994;6.552;2023-06-22T12:05:21;101714.59;;;26.60;51.84
76297;BME280;65104;52.994;6.552;2023-06-22T12:07:48;101709.06;;;26.67;51.32
76297;BME280;65104;52.994;6.552;2023-06-22T12:10:13;101699.38;;;26.68;53.74
76297;BME280;65104;52.994;6.552;2023-06-22T12:12:39;101701.69;;;26.52;51.83
76297;BME280;65104;52.994;6.552;2023-06-22T12:15:04;101698.22;;;26.50;52.73
76297;BME280;65104;52.994;6.552;2023-06-22T12:17:31;101695.91;;;26.41;56.15
76297;BME280;65104;52.994;6.552;2023-06-22T12:19:56;101695.72;;;26.47;54.86
76297;BME280;65104;52.994;6.552;2023-06-22T12:22:21;101690.16;;;26.56;54.41
76297;BME280;65104;52.994;6.552;2023-06-22T12:24:47;101691.38;;;26.71;53.02
76297;BME280;65104;52.994;6.552;2023-06-22T12:27:12;101684.88;;;26.81;53.57
76297;BME280;65104;52.994;6.552;2023-06-22T12:29:38;101687.00;;;26.70;53.64
76297;BME280;65104;52.994;6.552;2023-06-22T12:32:04;101685.25;;;26.70;51.51
76297;BME280;65104;52.994;6.552;2023-06-22T12:34:29;101673.47;;;26.56;50.96
76297;BME280;65104;52.994;6.552;2023-06-22T12:36:54;101679.44;;;26.61;50.91
76297;BME280;65104;52.994;6.552;2023-06-22T12:39:20;101672.28;;;26.64;52.89
76297;BME280;65104;52.994;6.552;2023-06-22T12:41:45;101671.63;;;26.58;53.07
76297;BME280;65104;52.994;6.552;2023-06-22T12:44:11;101672.81;;;26.49;52.28
76297;BME280;65104;52.994;6.552;2023-06-22T12:46:36;101681.44;;;26.28;53.70
76297;BME280;65104;52.994;6.552;2023-06-22T12:49:03;101672.47;;;26.33;55.66